createdAt,value
2022-12-04T00:01:27.028Z,10.80
2022-12-04T00:03:55.031Z,11.40
2022-12-04T00:06:24.709Z,8.70
2022-12-04T00:08:52.087Z,10.43
2022-12-04T00:11:23.586Z,8.68
2022-12-04T00:13:52.493Z,8.47
2022-12-04T00:16:21.371Z,8.70
2022-12-04T00:18:50.470Z,8.85
2022-12-04T00:21:18.635Z,8.68
2022-12-04T00:23:46.252Z,9.40
2022-12-04T00:26:23.881Z,10.68
2022-12-04T00:28:50.816Z,8.82
2022-12-04T00:31:22.769Z,9.52
2022-12-04T00:33:49.610Z,10.75
2022-12-04T00:36:18.412Z,8.63
2022-12-04T00:38:47.866Z,9.80
2022-12-04T00:41:16.935Z,10.27
2022-12-04T00:43:43.771Z,10.63
2022-12-04T00:46:13.203Z,10.30
2022-12-04T00:48:45.184Z,9.07
2022-12-04T00:51:16.567Z,9.80
2022-12-04T00:53:48.231Z,12.45
2022-12-04T00:56:20.898Z,13.82
2022-12-04T00:58:47.987Z,9.98
2022-12-04T01:01:17.596Z,17.17
2022-12-04T01:03:44.911Z,10.48
2022-12-04T01:06:23.220Z,11.90
2022-12-04T01:08:51.143Z,14.95
2022-12-04T01:11:18.510Z,17.27
2022-12-04T01:13:47.707Z,11.57
2022-12-04T01:16:26.605Z,9.27
2022-12-04T01:18:53.429Z,13.77
2022-12-04T01:21:20.404Z,9.75
2022-12-04T01:23:47.267Z,10.40
2022-12-04T01:26:14.596Z,9.38
2022-12-04T01:28:41.860Z,9.07
2022-12-04T01:31:14.375Z,8.70
2022-12-04T01:33:46.296Z,9.70
2022-12-04T01:36:16.708Z,9.70
2022-12-04T01:38:45.726Z,10.38
2022-12-04T01:41:14.855Z,9.60
2022-12-04T01:43:41.855Z,19.75
2022-12-04T01:46:09.030Z,11.27
2022-12-04T01:48:50.891Z,11.40
2022-12-04T01:51:29.302Z,10.27
2022-12-04T01:54:02.483Z,10.05
2022-12-04T01:56:40.677Z,12.13
2022-12-04T01:59:09.211Z,13.07
2022-12-04T02:01:42.620Z,12.80
2022-12-04T02:04:14.184Z,12.45
2022-12-04T02:06:40.565Z,9.00
2022-12-04T02:09:07.560Z,9.93
2022-12-04T02:11:51.876Z,14.07
2022-12-04T02:14:27.490Z,11.25
2022-12-04T02:17:20.475Z,10.50
2022-12-04T02:20:05.404Z,12.73
2022-12-04T02:22:59.615Z,11.48
2022-12-04T02:26:06.882Z,13.02
2022-12-04T02:28:55.247Z,13.20
2022-12-04T02:31:48.429Z,10.35
2022-12-04T02:34:26.708Z,16.40
2022-12-04T02:36:59.385Z,9.40
2022-12-04T02:39:30.885Z,8.43
2022-12-04T02:42:07.179Z,14.30
2022-12-04T02:44:57.262Z,8.88
2022-12-04T02:47:26.852Z,8.93
2022-12-04T02:49:59.172Z,23.67
2022-12-04T02:52:36.529Z,25.95
2022-12-04T02:55:08.761Z,10.90
2022-12-04T03:00:08.246Z,24.83
2022-12-04T03:02:54.929Z,10.80
2022-12-04T03:05:32.905Z,8.65
2022-12-04T03:08:04.633Z,8.48
2022-12-04T03:10:39.084Z,10.07
2022-12-04T03:13:24.275Z,8.20
2022-12-04T03:15:58.348Z,9.55
2022-12-04T03:18:30.708Z,9.10
2022-12-04T03:21:04.187Z,8.75
2022-12-04T03:23:37.695Z,9.52
2022-12-04T03:26:10.842Z,9.35
2022-12-04T03:29:00.510Z,9.45
2022-12-04T03:31:43.253Z,8.65
2022-12-04T03:34:11.445Z,9.05
2022-12-04T03:36:45.754Z,8.52
2022-12-04T03:39:20.574Z,9.32
2022-12-04T03:41:57.917Z,7.70
2022-12-04T03:44:38.095Z,9.68
2022-12-04T03:47:17.142Z,7.82
2022-12-04T03:49:54.432Z,7.93
2022-12-04T03:52:41.692Z,9.30
2022-12-04T03:55:21.565Z,9.27
2022-12-04T03:57:51.153Z,8.68
2022-12-04T04:00:20.338Z,8.27
2022-12-04T04:02:53.594Z,8.30
2022-12-04T04:05:22.484Z,7.68
2022-12-04T04:07:55.992Z,8.07
2022-12-04T04:10:26.649Z,8.80
2022-12-04T04:13:20.006Z,9.73
2022-12-04T04:16:11.573Z,7.70
2022-12-04T04:18:58.317Z,8.20
2022-12-04T04:21:50.734Z,7.78
2022-12-04T04:24:51.377Z,7.75
2022-12-04T04:27:17.836Z,8.80
2022-12-04T04:29:52.332Z,8.73
2022-12-04T04:32:23.183Z,7.65
2022-12-04T04:35:03.826Z,8.05
2022-12-04T04:37:54.473Z,7.45
2022-12-04T04:40:28.327Z,7.13
2022-12-04T04:43:11.397Z,8.95
2022-12-04T04:45:40.925Z,8.60
2022-12-04T04:48:19.107Z,8.95
2022-12-04T04:50:46.203Z,8.75
2022-12-04T04:53:19.515Z,7.68
2022-12-04T04:55:49.526Z,8.55
2022-12-04T04:58:19.209Z,8.07
2022-12-04T05:01:08.687Z,8.20
2022-12-04T05:03:35.339Z,8.70
2022-12-04T05:06:02.091Z,8.82
2022-12-04T05:08:28.638Z,7.70
2022-12-04T05:10:57.467Z,9.23
2022-12-04T05:13:24.105Z,7.07
2022-12-04T05:16:05.512Z,7.95
2022-12-04T05:18:33.247Z,7.88
2022-12-04T05:20:59.676Z,6.70
2022-12-04T05:23:26.252Z,7.80
2022-12-04T05:25:59.910Z,6.72
2022-12-04T05:28:26.403Z,6.32
2022-12-04T05:31:00.215Z,7.20
2022-12-04T05:33:33.409Z,7.00
2022-12-04T05:36:02.922Z,6.97
2022-12-04T05:38:29.973Z,7.28
2022-12-04T05:41:01.155Z,7.68
2022-12-04T05:43:28.035Z,6.60
2022-12-04T05:45:54.727Z,6.72
2022-12-04T05:48:21.220Z,7.50
2022-12-04T05:50:50.000Z,6.95
2022-12-04T05:53:16.457Z,6.10
2022-12-04T05:55:42.872Z,6.82
2022-12-04T05:58:09.471Z,6.93
2022-12-04T06:00:36.052Z,6.88
2022-12-04T06:03:02.448Z,6.80
2022-12-04T06:05:28.904Z,5.82
2022-12-04T06:07:55.331Z,7.07
2022-12-04T06:10:21.752Z,6.70
2022-12-04T06:12:48.121Z,6.85
2022-12-04T06:15:14.484Z,7.50
2022-12-04T06:17:40.899Z,6.85
2022-12-04T06:20:11.951Z,6.80
2022-12-04T06:22:40.823Z,7.38
2022-12-04T06:25:08.088Z,6.53
2022-12-04T06:27:34.708Z,7.70
2022-12-04T06:30:01.971Z,7.25
2022-12-04T06:32:28.538Z,7.47
2022-12-04T06:34:55.274Z,6.80
2022-12-04T06:37:23.425Z,6.95
2022-12-04T06:39:50.055Z,6.90
2022-12-04T06:42:16.495Z,5.97
2022-12-04T06:44:43.018Z,6.07
2022-12-04T06:47:13.980Z,6.90
2022-12-04T06:49:42.735Z,6.18
2022-12-04T06:52:09.144Z,6.70
2022-12-04T06:54:35.665Z,6.13
2022-12-04T06:57:06.681Z,8.02
2022-12-04T06:59:33.834Z,6.43
2022-12-04T07:02:00.403Z,6.70
2022-12-04T07:04:27.286Z,6.25
2022-12-04T07:06:54.422Z,6.50
2022-12-04T07:09:20.892Z,6.50
2022-12-04T07:11:47.315Z,6.28
2022-12-04T07:14:13.874Z,5.70
2022-12-04T07:16:42.326Z,5.13
2022-12-04T07:19:12.620Z,6.78
2022-12-04T07:21:39.275Z,6.03
2022-12-04T07:24:08.528Z,5.85
2022-12-04T07:26:35.011Z,5.70
2022-12-04T07:29:01.452Z,6.65
2022-12-04T07:31:32.049Z,6.40
2022-12-04T07:33:58.818Z,6.22
2022-12-04T07:36:26.301Z,6.38
2022-12-04T07:38:55.630Z,5.95
2022-12-04T07:41:22.249Z,6.75
2022-12-04T07:43:48.815Z,6.75
2022-12-04T07:46:19.253Z,7.07
2022-12-04T07:48:46.654Z,5.25
2022-12-04T07:51:19.107Z,5.85
2022-12-04T07:56:13.424Z,6.38
2022-12-04T07:58:41.563Z,5.50
2022-12-04T08:01:11.061Z,5.88
2022-12-04T08:03:46.713Z,5.72
2022-12-04T08:06:14.706Z,6.18
2022-12-04T08:08:41.496Z,6.47
2022-12-04T08:11:10.305Z,6.07
2022-12-04T08:13:39.537Z,6.25
2022-12-04T08:16:08.391Z,6.55
2022-12-04T08:18:35.189Z,7.53
2022-12-04T08:21:09.245Z,6.22
2022-12-04T08:23:36.640Z,6.13
2022-12-04T08:26:04.533Z,6.78
2022-12-04T08:28:34.022Z,5.97
2022-12-04T08:31:10.566Z,8.25
2022-12-04T08:33:37.264Z,6.60
2022-12-04T08:36:08.571Z,6.43
2022-12-04T08:38:35.697Z,6.47
2022-12-04T08:41:06.775Z,6.82
2022-12-04T08:43:33.444Z,6.68
2022-12-04T08:46:02.274Z,7.05
2022-12-04T08:48:32.215Z,6.65
2022-12-04T08:50:59.551Z,5.53
2022-12-04T08:53:26.004Z,6.93
2022-12-04T08:55:55.013Z,7.28
2022-12-04T08:58:22.104Z,5.90
2022-12-04T09:00:48.768Z,6.68
2022-12-04T09:03:17.973Z,6.97
2022-12-04T09:05:45.855Z,9.25
2022-12-04T09:08:14.005Z,6.50
2022-12-04T09:10:41.475Z,6.93
2022-12-04T09:13:08.285Z,6.18
2022-12-04T09:15:39.267Z,6.75
2022-12-04T09:18:07.126Z,6.75
2022-12-04T09:20:33.571Z,6.25
2022-12-04T09:23:04.491Z,6.38
2022-12-04T09:25:32.164Z,6.80
2022-12-04T09:27:58.678Z,6.63
2022-12-04T09:30:27.373Z,5.85
2022-12-04T09:32:56.317Z,5.82
2022-12-04T09:35:22.824Z,5.93
2022-12-04T09:37:49.268Z,6.72
2022-12-04T09:40:30.739Z,5.50
2022-12-04T09:43:26.407Z,5.93
2022-12-04T09:45:58.597Z,6.18
2022-12-04T09:48:33.108Z,6.60
2022-12-04T09:51:01.858Z,6.03
2022-12-04T09:53:35.508Z,6.60
2022-12-04T09:56:07.997Z,9.23
2022-12-04T10:01:03.166Z,6.22
2022-12-04T10:03:32.932Z,6.53
2022-12-04T10:06:14.410Z,9.02
2022-12-04T10:08:46.420Z,6.95
2022-12-04T10:11:17.011Z,7.40
2022-12-04T10:14:01.391Z,6.53
2022-12-04T10:17:11.631Z,6.63
2022-12-04T10:20:02.498Z,6.43
2022-12-04T10:22:47.843Z,5.13
2022-12-04T10:25:25.675Z,6.90
2022-12-04T10:28:00.241Z,7.03
2022-12-04T10:30:30.790Z,5.80
2022-12-04T10:33:11.590Z,7.63
2022-12-04T10:35:43.722Z,7.38
2022-12-04T10:38:22.671Z,6.28
2022-12-04T10:40:55.896Z,5.65
2022-12-04T10:43:44.198Z,5.88
2022-12-04T10:46:23.524Z,6.53
2022-12-04T10:48:55.891Z,6.47
2022-12-04T10:51:22.962Z,5.93
2022-12-04T10:53:52.387Z,6.13
2022-12-04T10:56:20.104Z,5.95
2022-12-04T10:59:00.968Z,5.72
2022-12-04T11:01:30.417Z,5.47
2022-12-04T11:04:02.089Z,5.63
2022-12-04T11:06:29.993Z,9.35
2022-12-04T11:08:58.395Z,5.90
2022-12-04T11:11:31.027Z,6.50
2022-12-04T11:14:06.074Z,6.93
2022-12-04T11:16:37.977Z,7.45
2022-12-04T11:19:19.813Z,5.93
2022-12-04T11:21:46.714Z,6.53
2022-12-04T11:24:22.865Z,6.40
2022-12-04T11:26:52.922Z,6.90
2022-12-04T11:29:24.984Z,18.15
2022-12-04T11:31:53.004Z,12.20
2022-12-04T11:34:22.525Z,8.63
2022-12-04T11:36:57.102Z,7.20
2022-12-04T11:39:32.209Z,7.32
2022-12-04T11:42:19.564Z,6.43
2022-12-04T11:44:57.861Z,6.55
2022-12-04T11:47:29.398Z,7.20
2022-12-04T11:50:03.533Z,6.80
2022-12-04T11:52:41.909Z,7.72
2022-12-04T11:55:37.149Z,8.07
2022-12-04T11:58:08.732Z,8.48
2022-12-04T12:00:42.611Z,9.17
2022-12-04T12:03:33.913Z,17.15
2022-12-04T12:06:09.657Z,7.18
2022-12-04T12:08:45.140Z,10.32
2022-12-04T12:11:36.146Z,7.97
2022-12-04T12:14:24.183Z,7.60
2022-12-04T12:17:15.491Z,7.80
2022-12-04T12:19:58.556Z,7.18
2022-12-04T12:22:27.900Z,8.60
2022-12-04T12:25:13.994Z,7.55
2022-12-04T12:28:05.083Z,8.52
2022-12-04T12:30:46.455Z,12.77
2022-12-04T12:33:20.066Z,10.35
2022-12-04T12:36:03.258Z,7.53
2022-12-04T12:38:41.623Z,8.27
2022-12-04T12:41:14.369Z,9.25
2022-12-04T12:43:45.735Z,9.73
2022-12-04T12:46:25.338Z,9.50
2022-12-04T12:49:00.992Z,8.98
2022-12-04T12:51:52.629Z,7.70
2022-12-04T12:54:28.399Z,8.45
2022-12-04T12:57:11.761Z,9.63
2022-12-04T12:59:44.005Z,9.13
2022-12-04T13:02:30.085Z,9.55
2022-12-04T13:05:02.515Z,9.73
2022-12-04T13:07:53.353Z,8.30
2022-12-04T13:10:28.670Z,8.93
2022-12-04T13:13:00.488Z,9.90
2022-12-04T13:15:44.731Z,7.95
2022-12-04T13:18:25.380Z,8.65
2022-12-04T13:20:57.835Z,8.35
2022-12-04T13:26:12.283Z,8.63
2022-12-04T13:28:54.651Z,9.20
2022-12-04T13:31:30.510Z,9.50
2022-12-04T13:34:40.980Z,8.18
2022-12-04T13:37:19.914Z,9.38
2022-12-04T13:40:23.661Z,7.95
2022-12-04T13:42:52.801Z,8.65
2022-12-04T13:45:31.913Z,8.95
2022-12-04T13:48:00.845Z,10.07
2022-12-04T13:50:31.021Z,9.02
2022-12-04T13:52:57.972Z,9.68
2022-12-04T13:55:27.275Z,8.55
2022-12-04T13:58:18.872Z,9.68
2022-12-04T14:00:45.687Z,9.15
2022-12-04T14:03:29.531Z,9.48
2022-12-04T14:05:56.343Z,8.45
2022-12-04T14:08:26.196Z,9.65
2022-12-04T14:11:01.341Z,9.75
2022-12-04T14:13:49.775Z,9.25
2022-12-04T14:16:24.039Z,10.98
2022-12-04T14:19:01.139Z,12.15
2022-12-04T14:21:48.068Z,13.02
2022-12-04T14:24:30.691Z,12.93
2022-12-04T14:29:51.117Z,11.88
2022-12-04T14:32:23.640Z,12.95
2022-12-04T14:34:56.193Z,12.77
2022-12-04T14:37:36.347Z,12.00
2022-12-04T14:40:07.248Z,11.98
2022-12-04T14:42:35.764Z,11.45
2022-12-04T14:45:06.233Z,11.30
2022-12-04T14:47:58.897Z,11.25
2022-12-04T14:50:39.417Z,11.27
2022-12-04T14:53:32.314Z,12.57
2022-12-04T14:58:36.398Z,11.32
2022-12-04T15:01:25.285Z,12.18
2022-12-04T15:03:57.949Z,11.95
2022-12-04T15:06:31.277Z,11.13
2022-12-04T15:09:23.080Z,10.35
2022-12-04T15:12:13.255Z,14.38
2022-12-04T15:14:46.944Z,12.85
2022-12-04T15:17:16.195Z,12.00
2022-12-04T15:19:42.851Z,13.27
2022-12-04T15:22:22.507Z,14.32
2022-12-04T15:24:50.042Z,11.05
2022-12-04T15:27:19.110Z,12.20
2022-12-04T15:29:51.452Z,11.20
2022-12-04T15:32:21.503Z,11.35
2022-12-04T15:34:52.827Z,11.93
2022-12-04T15:37:24.647Z,12.43
2022-12-04T15:39:52.799Z,12.80
2022-12-04T15:42:30.126Z,14.48
2022-12-04T15:45:27.862Z,12.85
2022-12-04T15:47:58.762Z,14.43
2022-12-04T15:50:31.136Z,13.07
2022-12-04T15:53:08.880Z,14.48
2022-12-04T15:55:48.464Z,13.02
2022-12-04T15:58:28.066Z,12.20
2022-12-04T16:01:05.379Z,13.30
2022-12-04T16:03:44.167Z,14.18
2022-12-04T16:06:13.439Z,13.25
2022-12-04T16:08:41.712Z,12.15
2022-12-04T16:11:25.424Z,12.57
2022-12-04T16:14:16.365Z,11.82
2022-12-04T16:16:46.243Z,12.07
2022-12-04T16:19:17.918Z,12.52
2022-12-04T16:21:44.866Z,12.40
2022-12-04T16:24:15.080Z,26.42
2022-12-04T16:26:41.714Z,14.32
2022-12-04T16:29:08.271Z,13.15
2022-12-04T16:31:35.530Z,12.75
2022-12-04T16:34:04.605Z,12.45
2022-12-04T16:36:34.167Z,12.88
2022-12-04T16:39:00.710Z,11.55
2022-12-04T16:41:27.234Z,13.73
2022-12-04T16:44:00.562Z,14.77
2022-12-04T16:46:29.464Z,13.40
2022-12-04T16:48:56.528Z,12.55
2022-12-04T16:51:25.704Z,12.93
2022-12-04T16:53:53.109Z,13.57
2022-12-04T16:56:25.756Z,12.32
2022-12-04T16:58:54.473Z,11.90
2022-12-04T17:01:21.303Z,12.90
2022-12-04T17:03:48.671Z,12.85
2022-12-04T17:06:15.848Z,13.90
2022-12-04T17:08:42.301Z,14.73
2022-12-04T17:11:12.898Z,12.63
2022-12-04T17:13:42.205Z,12.77
2022-12-04T17:16:09.328Z,14.00
2022-12-04T17:18:36.001Z,16.42
2022-12-04T17:21:09.956Z,14.55
2022-12-04T17:23:36.881Z,16.48
2022-12-04T17:26:05.096Z,14.57
2022-12-04T17:28:32.268Z,16.63
2022-12-04T17:30:59.123Z,13.73
2022-12-04T17:33:26.010Z,14.35
2022-12-04T17:35:54.032Z,15.77
2022-12-04T17:38:20.504Z,15.07
2022-12-04T17:40:59.554Z,13.68
2022-12-04T17:43:26.108Z,13.43
2022-12-04T17:45:52.507Z,12.95
2022-12-04T17:48:18.938Z,13.10
2022-12-04T17:50:45.362Z,14.30
2022-12-04T17:53:11.734Z,13.80
2022-12-04T17:55:38.262Z,12.70
2022-12-04T17:58:04.652Z,13.85
2022-12-04T18:00:31.133Z,13.20
2022-12-04T18:02:57.713Z,14.95
2022-12-04T18:05:30.620Z,14.13
2022-12-04T18:07:57.239Z,12.98
2022-12-04T18:10:26.805Z,14.10
2022-12-04T18:12:53.331Z,15.25
2022-12-04T18:15:19.816Z,13.75
2022-12-04T18:17:46.317Z,13.63
2022-12-04T18:20:13.024Z,15.05
2022-12-04T18:22:39.514Z,13.98
2022-12-04T18:25:07.411Z,17.35
2022-12-04T18:27:41.538Z,14.85
2022-12-04T18:30:09.269Z,15.15
2022-12-04T18:32:35.698Z,15.27
2022-12-04T18:35:02.256Z,14.07
2022-12-04T18:37:28.856Z,15.60
2022-12-04T18:39:55.537Z,13.85
2022-12-04T18:42:22.208Z,13.32
2022-12-04T18:44:48.762Z,14.32
2022-12-04T18:47:15.190Z,14.80
2022-12-04T18:49:41.622Z,17.02
2022-12-04T18:52:08.189Z,18.92
2022-12-04T18:54:34.613Z,15.25
2022-12-04T18:57:01.075Z,14.43
2022-12-04T18:59:29.053Z,14.20
2022-12-04T19:01:57.930Z,15.63
2022-12-04T19:04:25.276Z,15.57
2022-12-04T19:06:55.119Z,20.80
2022-12-04T19:09:47.251Z,20.20
2022-12-04T19:12:12.041Z,17.58
2022-12-04T19:14:42.087Z,21.17
2022-12-04T19:17:08.968Z,15.95
2022-12-04T19:19:40.173Z,17.77
2022-12-04T19:22:06.650Z,26.85
2022-12-04T19:24:33.162Z,23.25
2022-12-04T19:27:00.354Z,15.95
2022-12-04T19:29:29.320Z,25.85
2022-12-04T19:31:59.301Z,24.10
2022-12-04T19:34:26.581Z,18.25
2022-12-04T19:36:54.635Z,22.70
2022-12-04T19:39:21.008Z,26.58
2022-12-04T19:41:47.679Z,33.35
2022-12-04T19:44:47.260Z,40.35
2022-12-04T19:47:03.746Z,27.35
2022-12-04T19:49:30.257Z,23.17
2022-12-04T19:51:59.392Z,27.27
2022-12-04T19:54:26.139Z,20.60
2022-12-04T19:56:54.992Z,21.83
2022-12-04T19:59:21.360Z,19.45
2022-12-04T20:01:48.218Z,17.98
2022-12-04T20:04:15.741Z,20.80
2022-12-04T20:06:44.717Z,19.30
2022-12-04T20:09:14.842Z,22.92
2022-12-04T20:11:42.121Z,20.65
2022-12-04T20:14:10.075Z,16.88
2022-12-04T20:16:37.950Z,13.32
2022-12-04T20:19:06.477Z,16.33
2022-12-04T20:21:33.061Z,15.02
2022-12-04T20:24:05.064Z,14.00
2022-12-04T20:26:37.371Z,16.05
2022-12-04T20:29:12.962Z,15.43
2022-12-04T20:31:42.677Z,14.88
2022-12-04T20:34:13.164Z,15.65
2022-12-04T20:36:42.199Z,14.10
2022-12-04T20:39:10.948Z,14.13
2022-12-04T20:41:40.327Z,17.45
2022-12-04T20:44:11.337Z,15.98
2022-12-04T20:46:40.011Z,13.48
2022-12-04T20:49:14.620Z,12.95
2022-12-04T20:51:47.910Z,14.95
2022-12-04T20:54:18.538Z,12.88
2022-12-04T20:56:49.110Z,13.50
2022-12-04T20:59:19.957Z,12.75
2022-12-04T21:01:49.258Z,13.82
2022-12-04T21:04:18.036Z,13.55
2022-12-04T21:06:46.715Z,15.77
2022-12-04T21:09:19.955Z,13.18
2022-12-04T21:11:51.752Z,15.05
2022-12-04T21:14:41.587Z,15.68
2022-12-04T21:17:11.920Z,12.70
2022-12-04T21:19:38.838Z,15.18
2022-12-04T21:22:05.606Z,13.80
2022-12-04T21:24:38.417Z,13.57
2022-12-04T21:27:07.757Z,14.95
2022-12-04T21:29:35.003Z,14.65
2022-12-04T21:32:02.207Z,15.20
2022-12-04T21:34:28.624Z,16.52
2022-12-04T21:36:55.168Z,16.25
2022-12-04T21:39:24.214Z,15.20
2022-12-04T21:42:11.027Z,14.77
2022-12-04T21:44:38.150Z,15.48
2022-12-04T21:47:04.987Z,14.60
2022-12-04T21:49:31.408Z,16.70
2022-12-04T21:51:58.908Z,16.15
2022-12-04T21:54:27.769Z,12.82
2022-12-04T21:56:54.955Z,16.20
2022-12-04T21:59:21.800Z,16.10
2022-12-04T22:01:48.505Z,14.60
2022-12-04T22:04:18.180Z,16.05
2022-12-04T22:06:44.576Z,17.20
2022-12-04T22:09:12.171Z,17.05
2022-12-04T22:11:41.456Z,13.70
2022-12-04T22:14:08.804Z,13.75
2022-12-04T22:16:41.336Z,12.68
2022-12-04T22:19:12.421Z,14.95
2022-12-04T22:21:39.458Z,16.15
2022-12-04T22:24:06.544Z,16.02
2022-12-04T22:26:33.351Z,14.75
2022-12-04T22:28:59.988Z,14.48
2022-12-04T22:31:27.956Z,14.98
2022-12-04T22:33:56.416Z,16.40
2022-12-04T22:36:26.416Z,15.45
2022-12-04T22:39:08.752Z,16.17
2022-12-04T22:41:36.220Z,15.65
2022-12-04T22:44:02.670Z,15.55
2022-12-04T22:46:32.390Z,14.95
2022-12-04T22:48:59.818Z,16.10
2022-12-04T22:51:27.255Z,16.08
2022-12-04T22:53:55.812Z,18.45
2022-12-04T22:56:31.556Z,13.32
2022-12-04T22:58:59.132Z,16.77
2022-12-04T23:01:28.130Z,17.10
2022-12-04T23:03:55.162Z,16.05
2022-12-04T23:06:24.624Z,16.70
2022-12-04T23:08:58.186Z,15.10
2022-12-04T23:11:26.230Z,15.25
2022-12-04T23:13:55.352Z,16.25
2022-12-04T23:16:23.284Z,16.02
2022-12-04T23:18:49.940Z,16.73
2022-12-04T23:21:17.999Z,17.05
2022-12-04T23:23:45.498Z,15.93
2022-12-04T23:26:15.193Z,16.13
2022-12-04T23:28:41.901Z,17.05
2022-12-04T23:31:08.765Z,17.40
2022-12-04T23:33:35.279Z,17.15
2022-12-04T23:36:02.441Z,16.25
2022-12-04T23:38:29.819Z,17.05
2022-12-04T23:41:13.987Z,15.50
2022-12-04T23:43:40.881Z,13.52
2022-12-04T23:46:11.202Z,17.88
2022-12-04T23:48:39.475Z,19.88
2022-12-04T23:51:09.588Z,20.25
2022-12-04T23:53:36.666Z,18.13
2022-12-04T23:56:07.620Z,17.55
2022-12-04T23:58:35.099Z,17.40
